createdAt,value
2022-10-05T00:02:25.660Z,7.68
2022-10-05T00:04:54.963Z,7.50
2022-10-05T00:07:24.910Z,7.38
2022-10-05T00:09:55.672Z,6.28
2022-10-05T00:12:26.241Z,7.55
2022-10-05T00:14:57.705Z,7.28
2022-10-05T00:17:27.211Z,7.97
2022-10-05T00:19:54.166Z,7.57
2022-10-05T00:22:32.651Z,7.47
2022-10-05T00:25:01.751Z,7.22
2022-10-05T00:27:34.091Z,6.70
2022-10-05T00:30:10.350Z,7.17
2022-10-05T00:32:36.955Z,6.93
2022-10-05T00:35:03.763Z,6.60
2022-10-05T00:37:30.402Z,6.63
2022-10-05T00:39:57.174Z,6.10
2022-10-05T00:42:35.998Z,6.40
2022-10-05T00:45:15.834Z,7.07
2022-10-05T00:48:08.103Z,7.18
2022-10-05T00:51:08.427Z,6.63
2022-10-05T00:53:58.109Z,7.22
2022-10-05T00:56:52.634Z,7.30
2022-10-05T00:59:36.774Z,6.50
2022-10-05T01:02:15.154Z,6.82
2022-10-05T01:04:56.688Z,6.40
2022-10-05T01:07:43.027Z,7.03
2022-10-05T01:10:38.343Z,6.30
2022-10-05T01:13:18.819Z,6.15
2022-10-05T01:16:19.253Z,6.60
2022-10-05T01:18:51.742Z,6.50
2022-10-05T01:21:23.294Z,6.65
2022-10-05T01:23:52.684Z,6.80
2022-10-05T01:26:50.741Z,7.20
2022-10-05T01:29:28.802Z,7.05
2022-10-05T01:32:16.599Z,6.15
2022-10-05T01:34:50.981Z,5.80
2022-10-05T01:37:32.679Z,6.33
2022-10-05T01:40:08.423Z,5.78
2022-10-05T01:42:53.860Z,6.25
2022-10-05T01:45:46.569Z,6.13
2022-10-05T01:48:29.299Z,6.35
2022-10-05T01:51:11.092Z,6.13
2022-10-05T01:54:06.306Z,6.10
2022-10-05T01:56:54.439Z,6.07
2022-10-05T01:59:51.769Z,6.22
2022-10-05T02:02:20.592Z,6.47
2022-10-05T02:05:04.381Z,5.93
2022-10-05T02:08:09.572Z,6.80
2022-10-05T02:10:44.138Z,6.75
2022-10-05T02:13:16.719Z,6.25
2022-10-05T02:15:48.329Z,7.45
2022-10-05T02:18:27.067Z,7.47
2022-10-05T02:20:56.519Z,6.35
2022-10-05T02:23:27.093Z,6.65
2022-10-05T02:25:55.386Z,6.55
2022-10-05T02:28:24.760Z,5.88
2022-10-05T02:30:56.697Z,5.93
2022-10-05T02:33:33.001Z,5.95
2022-10-05T02:36:13.565Z,6.38
2022-10-05T02:38:55.548Z,5.93
2022-10-05T02:41:33.743Z,6.47
2022-10-05T02:44:26.604Z,6.43
2022-10-05T02:47:23.779Z,6.72
2022-10-05T02:50:03.533Z,5.90
2022-10-05T02:52:38.734Z,5.68
2022-10-05T02:55:21.095Z,6.55
2022-10-05T02:58:13.840Z,5.90
2022-10-05T03:00:55.371Z,6.47
2022-10-05T03:03:34.448Z,5.97
2022-10-05T03:06:04.354Z,5.90
2022-10-05T03:08:39.047Z,6.65
2022-10-05T03:11:36.663Z,6.90
2022-10-05T03:14:42.846Z,6.70
2022-10-05T03:17:27.565Z,6.85
2022-10-05T03:20:12.907Z,6.50
2022-10-05T03:22:48.149Z,6.03
2022-10-05T03:25:50.239Z,6.20
2022-10-05T03:28:51.227Z,6.20
2022-10-05T03:31:43.765Z,6.78
2022-10-05T03:34:20.391Z,5.95
2022-10-05T03:37:00.342Z,6.82
2022-10-05T03:39:41.044Z,5.67
2022-10-05T03:42:24.428Z,5.95
2022-10-05T03:45:09.252Z,6.30
2022-10-05T03:48:02.845Z,5.43
2022-10-05T03:50:40.711Z,6.07
2022-10-05T03:53:16.277Z,5.90
2022-10-05T03:55:51.734Z,5.88
2022-10-05T03:58:29.730Z,5.78
2022-10-05T04:01:00.817Z,5.60
2022-10-05T04:03:39.604Z,6.53
2022-10-05T04:06:14.544Z,5.83
2022-10-05T04:09:01.838Z,6.95
2022-10-05T04:11:39.365Z,6.20
2022-10-05T04:14:24.837Z,7.28
2022-10-05T04:17:00.720Z,7.00
2022-10-05T04:19:44.062Z,7.43
2022-10-05T04:22:19.579Z,6.78
2022-10-05T04:25:01.382Z,7.13
2022-10-05T04:27:39.154Z,7.20
2022-10-05T04:30:15.559Z,7.30
2022-10-05T04:32:53.738Z,8.67
2022-10-05T04:35:38.769Z,7.70
2022-10-05T04:38:18.821Z,7.60
2022-10-05T04:40:58.231Z,6.68
2022-10-05T04:43:52.313Z,7.55
2022-10-05T04:46:53.389Z,7.87
2022-10-05T04:49:40.842Z,7.97
2022-10-05T04:52:26.859Z,8.15
2022-10-05T04:55:35.137Z,8.73
2022-10-05T04:58:33.603Z,10.20
2022-10-05T05:01:44.551Z,10.00
2022-10-05T05:04:27.040Z,15.23
2022-10-05T05:07:31.202Z,16.05
2022-10-05T05:10:03.332Z,15.70
2022-10-05T05:12:56.946Z,16.83
2022-10-05T05:16:02.448Z,16.37
2022-10-05T05:18:34.681Z,15.43
2022-10-05T05:21:23.933Z,17.98
2022-10-05T05:24:11.464Z,16.67
2022-10-05T05:26:56.651Z,15.90
2022-10-05T05:29:49.026Z,18.13
2022-10-05T05:32:33.811Z,12.20
2022-10-05T05:35:03.440Z,16.15
2022-10-05T05:37:29.908Z,14.50
2022-10-05T05:40:31.972Z,14.63
2022-10-05T05:43:17.004Z,12.87
2022-10-05T05:45:55.047Z,13.30
2022-10-05T05:48:35.232Z,15.25
2022-10-05T05:51:10.581Z,14.93
2022-10-05T05:53:50.502Z,14.38
2022-10-05T05:56:24.063Z,13.30
2022-10-05T05:59:02.278Z,13.98
2022-10-05T06:01:40.724Z,13.68
2022-10-05T06:04:24.189Z,14.85
2022-10-05T06:06:53.789Z,14.18
2022-10-05T06:09:29.654Z,12.17
2022-10-05T06:12:02.631Z,12.60
2022-10-05T06:14:37.181Z,13.18
2022-10-05T06:17:15.721Z,12.95
2022-10-05T06:19:42.990Z,14.35
2022-10-05T06:22:32.809Z,14.40
2022-10-05T06:25:07.740Z,13.20
2022-10-05T06:28:03.701Z,13.80
2022-10-05T06:30:58.886Z,13.27
2022-10-05T06:33:49.200Z,13.75
2022-10-05T06:36:36.817Z,12.53
2022-10-05T06:39:22.389Z,12.77
2022-10-05T06:42:08.130Z,15.52
2022-10-05T06:44:43.517Z,13.88
2022-10-05T06:47:31.375Z,14.68
2022-10-05T06:50:38.429Z,12.77
2022-10-05T06:53:28.388Z,13.35
2022-10-05T06:56:17.505Z,13.75
2022-10-05T06:58:51.215Z,13.70
2022-10-05T07:01:30.769Z,14.13
2022-10-05T07:04:24.231Z,13.77
2022-10-05T07:06:56.959Z,13.07
2022-10-05T07:09:46.224Z,9.68
2022-10-05T07:12:18.575Z,9.98
2022-10-05T07:14:57.845Z,10.93
2022-10-05T07:18:15.043Z,13.07
2022-10-05T07:20:59.481Z,13.13
2022-10-05T07:23:47.550Z,12.32
2022-10-05T07:26:32.289Z,11.98
2022-10-05T07:29:07.541Z,11.85
2022-10-05T07:31:50.079Z,11.53
2022-10-05T07:35:43.332Z,12.43
2022-10-05T07:38:17.471Z,10.82
2022-10-05T07:40:57.109Z,10.35
2022-10-05T07:44:00.429Z,9.88
2022-10-05T07:46:36.952Z,10.33
2022-10-05T07:49:31.549Z,9.75
2022-10-05T07:52:34.542Z,9.80
2022-10-05T07:55:20.646Z,8.60
2022-10-05T07:58:02.385Z,12.07
2022-10-05T08:00:52.398Z,10.90
2022-10-05T08:03:52.281Z,11.50
2022-10-05T08:06:38.841Z,10.90
2022-10-05T08:09:11.264Z,10.90
2022-10-05T08:11:50.459Z,11.43
2022-10-05T08:14:27.120Z,11.57
2022-10-05T08:16:58.597Z,11.25
2022-10-05T08:19:46.873Z,11.60
2022-10-05T08:22:23.467Z,10.13
2022-10-05T08:25:00.242Z,12.63
2022-10-05T08:27:46.761Z,12.00
2022-10-05T08:30:16.282Z,12.30
2022-10-05T08:32:55.216Z,14.52
2022-10-05T08:35:50.025Z,11.98
2022-10-05T08:38:20.174Z,14.43
2022-10-05T08:41:07.730Z,15.23
2022-10-05T08:43:49.932Z,15.20
2022-10-05T08:46:54.171Z,14.05
2022-10-05T08:50:06.986Z,14.80
2022-10-05T08:53:19.893Z,14.35
2022-10-05T08:56:04.617Z,12.77
2022-10-05T08:58:49.970Z,13.43
2022-10-05T09:01:20.704Z,14.35
2022-10-05T09:04:08.956Z,14.70
2022-10-05T09:07:14.442Z,14.27
2022-10-05T09:10:14.830Z,16.47
2022-10-05T09:13:09.749Z,15.60
2022-10-05T09:15:48.219Z,14.70
2022-10-05T09:18:52.498Z,14.85
2022-10-05T09:21:42.171Z,14.90
2022-10-05T09:24:14.727Z,13.83
2022-10-05T09:26:41.161Z,13.98
2022-10-05T09:29:26.263Z,14.80
2022-10-05T09:32:16.433Z,13.95
2022-10-05T09:35:10.222Z,12.77
2022-10-05T09:37:58.496Z,13.63
2022-10-05T09:40:47.548Z,11.80
2022-10-05T09:43:29.085Z,11.43
2022-10-05T09:46:24.174Z,12.80
2022-10-05T09:49:15.133Z,11.18
2022-10-05T09:52:19.332Z,11.73
2022-10-05T09:55:16.560Z,11.32
2022-10-05T09:58:04.050Z,12.27
2022-10-05T10:01:09.020Z,10.30
2022-10-05T10:04:07.894Z,12.15
2022-10-05T10:07:05.133Z,9.37
2022-10-05T10:09:56.520Z,10.55
2022-10-05T10:12:37.928Z,9.93
2022-10-05T10:15:52.483Z,11.02
2022-10-05T10:18:28.345Z,10.52
2022-10-05T10:21:21.565Z,9.50
2022-10-05T10:24:23.615Z,9.00
2022-10-05T10:27:19.955Z,9.88
2022-10-05T10:30:36.610Z,9.98
2022-10-05T10:33:19.405Z,8.52
2022-10-05T10:36:04.392Z,11.53
2022-10-05T10:38:40.175Z,9.52
2022-10-05T10:41:19.709Z,12.18
2022-10-05T10:44:15.133Z,10.73
2022-10-05T10:46:53.859Z,9.48
2022-10-05T10:49:39.171Z,9.83
2022-10-05T10:52:16.378Z,9.32
2022-10-05T10:55:00.883Z,8.48
2022-10-05T10:57:39.938Z,11.40
2022-10-05T11:00:15.706Z,9.52
2022-10-05T11:02:48.111Z,10.20
2022-10-05T11:05:33.301Z,11.80
2022-10-05T11:07:59.709Z,12.48
2022-10-05T11:10:35.033Z,11.00
2022-10-05T11:13:19.663Z,9.90
2022-10-05T11:19:02.162Z,8.57
2022-10-05T11:21:36.382Z,7.75
2022-10-05T11:24:21.528Z,7.20
2022-10-05T11:27:03.422Z,6.85
2022-10-05T11:29:55.881Z,6.50
2022-10-05T11:32:46.834Z,5.05
2022-10-05T11:35:48.865Z,4.40
2022-10-05T11:38:37.949Z,6.00
2022-10-05T11:41:32.842Z,4.03
2022-10-05T11:44:43.949Z,3.40
2022-10-05T11:47:25.229Z,3.53
2022-10-05T11:50:45.937Z,3.60
2022-10-05T11:53:44.476Z,3.50
2022-10-05T11:56:26.746Z,3.08
2022-10-05T11:59:00.089Z,3.10
2022-10-05T12:01:44.656Z,3.70
2022-10-05T12:04:27.435Z,2.72
2022-10-05T12:07:28.943Z,2.75
2022-10-05T12:10:17.170Z,3.10
2022-10-05T12:13:05.336Z,2.50
2022-10-05T12:15:48.009Z,3.88
2022-10-05T12:18:20.551Z,3.20
2022-10-05T12:20:54.391Z,3.65
2022-10-05T12:23:33.478Z,3.35
2022-10-05T12:26:16.349Z,2.80
2022-10-05T12:28:49.937Z,2.80
2022-10-05T12:31:27.013Z,2.70
2022-10-05T12:34:02.182Z,2.70
2022-10-05T12:37:02.499Z,2.85
2022-10-05T12:39:54.539Z,2.40
2022-10-05T12:42:30.241Z,3.28
2022-10-05T12:45:29.191Z,3.30
2022-10-05T12:48:29.689Z,6.13
2022-10-05T12:51:28.542Z,3.30
2022-10-05T12:54:01.681Z,3.30
2022-10-05T12:57:03.533Z,2.90
2022-10-05T12:59:42.170Z,2.90
2022-10-05T13:02:39.065Z,2.90
2022-10-05T13:05:08.655Z,3.20
2022-10-05T13:07:52.483Z,2.47
2022-10-05T13:10:33.337Z,2.75
2022-10-05T13:13:26.004Z,3.00
2022-10-05T13:16:07.756Z,3.47
2022-10-05T13:18:39.310Z,2.90
2022-10-05T13:21:08.431Z,2.73
2022-10-05T13:23:48.261Z,2.50
2022-10-05T13:26:21.949Z,2.63
2022-10-05T13:28:53.906Z,2.83
2022-10-05T13:31:29.260Z,2.75
2022-10-05T13:34:14.267Z,2.50
2022-10-05T13:36:46.685Z,2.65
2022-10-05T13:39:43.828Z,2.72
2022-10-05T13:42:52.312Z,2.05
2022-10-05T13:45:24.569Z,2.10
2022-10-05T13:48:06.877Z,2.67
2022-10-05T13:50:37.978Z,2.42
2022-10-05T13:53:28.845Z,2.25
2022-10-05T13:56:25.713Z,2.20
2022-10-05T13:59:02.962Z,2.25
2022-10-05T14:01:29.357Z,2.37
2022-10-05T14:04:17.426Z,3.35
2022-10-05T14:06:45.313Z,2.88
2022-10-05T14:09:21.952Z,2.60
2022-10-05T14:12:11.791Z,2.70
2022-10-05T14:14:53.537Z,2.63
2022-10-05T14:17:42.476Z,3.08
2022-10-05T14:20:31.330Z,2.63
2022-10-05T14:23:01.931Z,2.55
2022-10-05T14:25:30.153Z,2.95
2022-10-05T14:28:23.949Z,3.40
2022-10-05T14:30:59.416Z,2.90
2022-10-05T14:33:29.155Z,3.33
2022-10-05T14:35:57.710Z,2.70
2022-10-05T14:38:29.642Z,3.28
2022-10-05T14:41:04.234Z,3.43
2022-10-05T14:43:30.920Z,3.20
2022-10-05T14:46:03.362Z,3.63
2022-10-05T14:48:43.169Z,2.83
2022-10-05T14:51:12.305Z,2.75
2022-10-05T14:53:46.477Z,5.00
2022-10-05T14:56:41.933Z,3.72
2022-10-05T14:59:32.263Z,3.47
2022-10-05T15:02:12.530Z,3.38
2022-10-05T15:04:46.010Z,3.13
2022-10-05T15:07:20.577Z,3.20
2022-10-05T15:10:26.982Z,3.30
2022-10-05T15:13:15.539Z,3.42
2022-10-05T15:15:47.787Z,2.67
2022-10-05T15:18:16.963Z,3.25
2022-10-05T15:20:58.820Z,3.10
2022-10-05T15:23:28.037Z,2.95
2022-10-05T15:26:30.048Z,3.33
2022-10-05T15:29:09.364Z,3.00
2022-10-05T15:32:14.442Z,2.88
2022-10-05T15:34:51.602Z,3.57
2022-10-05T15:37:27.454Z,3.10
2022-10-05T15:39:58.682Z,3.33
2022-10-05T15:42:34.653Z,2.47
2022-10-05T15:45:19.638Z,3.10
2022-10-05T15:47:59.335Z,2.93
2022-10-05T15:50:29.188Z,3.63
2022-10-05T15:53:17.106Z,3.17
2022-10-05T15:55:53.108Z,3.47
2022-10-05T15:58:35.587Z,3.50
2022-10-05T16:01:11.499Z,3.10
2022-10-05T16:03:45.651Z,3.05
2022-10-05T16:06:56.354Z,3.90
2022-10-05T16:09:44.618Z,3.40
2022-10-05T16:12:18.538Z,4.43
2022-10-05T16:15:03.732Z,3.47
2022-10-05T16:17:36.608Z,3.83
2022-10-05T16:20:14.916Z,3.70
2022-10-05T16:23:02.827Z,5.05
2022-10-05T16:25:42.992Z,4.18
2022-10-05T16:28:29.114Z,4.23
2022-10-05T16:31:01.720Z,4.88
2022-10-05T16:33:46.597Z,4.47
2022-10-05T16:36:31.972Z,4.60
2022-10-05T16:39:27.429Z,4.70
2022-10-05T16:42:06.384Z,3.97
2022-10-05T16:44:51.149Z,4.05
2022-10-05T16:47:38.451Z,3.95
2022-10-05T16:50:27.499Z,3.85
2022-10-05T16:53:01.895Z,3.78
2022-10-05T16:55:40.720Z,3.27
2022-10-05T16:58:25.506Z,4.00
2022-10-05T17:01:17.461Z,3.60
2022-10-05T17:03:57.070Z,7.07
2022-10-05T17:06:54.999Z,5.45
2022-10-05T17:09:45.532Z,4.90
2022-10-05T17:12:30.226Z,5.10
2022-10-05T17:15:10.134Z,5.07
2022-10-05T17:17:48.990Z,3.33
2022-10-05T17:20:49.118Z,3.88
2022-10-05T17:23:29.158Z,5.73
2022-10-05T17:26:16.006Z,3.22
2022-10-05T17:29:00.327Z,4.75
2022-10-05T17:31:28.925Z,3.80
2022-10-05T17:34:17.935Z,4.15
2022-10-05T17:36:50.389Z,6.00
2022-10-05T17:39:21.076Z,6.70
2022-10-05T17:41:48.388Z,7.18
2022-10-05T17:44:21.144Z,4.90
2022-10-05T17:47:00.598Z,5.55
2022-10-05T17:50:15.046Z,4.83
2022-10-05T17:53:17.980Z,6.10
2022-10-05T17:55:45.819Z,5.03
2022-10-05T17:58:44.736Z,4.80
2022-10-05T18:01:35.654Z,4.70
2022-10-05T18:04:11.320Z,5.57
2022-10-05T18:07:18.929Z,4.95
2022-10-05T18:09:57.546Z,5.05
2022-10-05T18:12:39.925Z,4.50
2022-10-05T18:15:06.436Z,4.25
2022-10-05T18:17:50.552Z,3.90
2022-10-05T18:20:26.484Z,4.53
2022-10-05T18:23:23.755Z,4.10
2022-10-05T18:26:07.300Z,4.90
2022-10-05T18:28:50.840Z,4.07
2022-10-05T18:31:37.282Z,3.90
2022-10-05T18:34:09.872Z,3.92
2022-10-05T18:36:57.658Z,4.75
2022-10-05T18:39:39.252Z,3.45
2022-10-05T18:42:25.204Z,4.13
2022-10-05T18:45:06.311Z,3.20
2022-10-05T18:47:57.669Z,2.90
2022-10-05T18:50:30.747Z,2.40
2022-10-05T18:53:09.959Z,3.13
2022-10-05T18:55:44.237Z,2.03
2022-10-05T18:58:20.172Z,1.90
2022-10-05T19:01:00.066Z,2.00
2022-10-05T19:03:37.425Z,2.30
2022-10-05T19:06:13.809Z,2.25
2022-10-05T19:09:05.118Z,2.15
2022-10-05T19:11:51.361Z,1.93
2022-10-05T19:14:27.028Z,1.95
2022-10-05T19:17:25.789Z,2.00
2022-10-05T19:19:58.338Z,2.10
2022-10-05T19:22:47.438Z,2.25
2022-10-05T19:25:37.778Z,2.30
2022-10-05T19:28:17.478Z,2.92
2022-10-05T19:30:57.992Z,9.48
2022-10-05T19:33:50.738Z,6.55
2022-10-05T19:36:35.283Z,3.80
2022-10-05T19:39:21.161Z,4.97
2022-10-05T19:42:06.333Z,3.83
2022-10-05T19:44:45.191Z,2.70
2022-10-05T19:47:17.440Z,3.08
2022-10-05T19:49:52.803Z,3.38
2022-10-05T19:52:36.205Z,3.30
2022-10-05T19:55:14.643Z,2.72
2022-10-05T19:57:49.639Z,2.60
2022-10-05T20:00:25.664Z,2.42
2022-10-05T20:03:09.003Z,2.50
2022-10-05T20:05:35.815Z,4.10
2022-10-05T20:08:05.308Z,2.80
2022-10-05T20:10:32.608Z,2.95
2022-10-05T20:13:01.302Z,2.40
2022-10-05T20:15:52.131Z,3.10
2022-10-05T20:18:50.104Z,1.97
2022-10-05T20:21:38.517Z,2.67
2022-10-05T20:24:13.823Z,2.78
2022-10-05T20:27:00.114Z,2.38
2022-10-05T20:29:26.666Z,2.30
2022-10-05T20:31:53.548Z,2.40
2022-10-05T20:34:21.597Z,2.10
2022-10-05T20:36:49.356Z,1.80
2022-10-05T20:39:16.867Z,2.20
2022-10-05T20:41:44.690Z,2.40
2022-10-05T20:44:12.582Z,2.07
2022-10-05T20:46:41.543Z,2.63
2022-10-05T20:49:11.438Z,2.08
2022-10-05T20:51:40.030Z,2.20
2022-10-05T20:54:07.700Z,2.10
2022-10-05T20:56:34.375Z,1.90
2022-10-05T20:59:00.959Z,1.55
2022-10-05T21:01:28.765Z,2.15
2022-10-05T21:03:55.891Z,2.25
2022-10-05T21:06:22.510Z,2.60
2022-10-05T21:08:51.286Z,2.00
2022-10-05T21:11:17.883Z,2.15
2022-10-05T21:13:47.546Z,2.03
2022-10-05T21:16:16.677Z,2.13
2022-10-05T21:18:46.667Z,2.17
2022-10-05T21:21:17.386Z,1.77
2022-10-05T21:23:45.307Z,1.98
2022-10-05T21:26:12.055Z,2.15
2022-10-05T21:28:39.948Z,2.50
2022-10-05T21:31:08.746Z,2.67
2022-10-05T21:33:35.906Z,2.90
2022-10-05T21:36:02.545Z,2.50
2022-10-05T21:38:29.647Z,2.97
2022-10-05T21:40:56.397Z,2.45
2022-10-05T21:43:22.921Z,2.28
2022-10-05T21:45:49.500Z,2.20
2022-10-05T21:48:17.410Z,2.72
2022-10-05T21:50:44.698Z,2.00
2022-10-05T21:53:14.062Z,2.17
2022-10-05T21:55:43.345Z,1.73
2022-10-05T21:58:11.429Z,2.00
2022-10-05T22:00:37.916Z,2.45
2022-10-05T22:03:04.680Z,2.90
2022-10-05T22:05:32.059Z,2.17
2022-10-05T22:07:58.660Z,2.42
2022-10-05T22:10:25.334Z,2.70
2022-10-05T22:12:51.789Z,2.47
2022-10-05T22:15:18.690Z,2.90
2022-10-05T22:17:46.028Z,2.47
2022-10-05T22:20:14.340Z,2.67
2022-10-05T22:22:40.956Z,2.03
2022-10-05T22:25:08.042Z,2.03
2022-10-05T22:27:35.678Z,2.33
2022-10-05T22:30:03.609Z,3.88
2022-10-05T22:32:30.065Z,3.80
2022-10-05T22:34:56.574Z,3.00
2022-10-05T22:37:23.211Z,2.50
2022-10-05T22:39:49.639Z,2.20
2022-10-05T22:42:16.131Z,2.25
2022-10-05T22:44:42.582Z,2.42
2022-10-05T22:47:09.230Z,2.20
2022-10-05T22:49:35.670Z,2.30
2022-10-05T22:52:02.121Z,2.78
2022-10-05T22:54:30.473Z,4.40
2022-10-05T22:56:58.272Z,3.47
2022-10-05T22:59:24.759Z,2.93
2022-10-05T23:01:51.313Z,2.15
2022-10-05T23:04:17.874Z,2.38
2022-10-05T23:06:44.311Z,2.38
2022-10-05T23:09:10.773Z,2.28
2022-10-05T23:11:37.230Z,2.67
2022-10-05T23:14:03.690Z,2.90
2022-10-05T23:16:30.327Z,2.50
2022-10-05T23:18:58.274Z,2.22
2022-10-05T23:21:28.070Z,2.47
2022-10-05T23:23:55.545Z,2.30
2022-10-05T23:26:24.709Z,2.40
2022-10-05T23:28:51.415Z,2.25
2022-10-05T23:31:20.367Z,2.63
2022-10-05T23:33:46.930Z,2.42
2022-10-05T23:36:16.394Z,3.37
2022-10-05T23:38:43.193Z,2.72
2022-10-05T23:41:09.926Z,2.97
2022-10-05T23:43:36.873Z,2.38
2022-10-05T23:46:06.134Z,2.90
2022-10-05T23:48:33.775Z,2.53
2022-10-05T23:51:00.439Z,2.92
2022-10-05T23:53:26.915Z,3.70
2022-10-05T23:55:53.966Z,3.15
2022-10-05T23:58:21.698Z,2.97
